Time;durP1;ratioP1;P1;durP2;ratioP2;P2;SDS_P1;SDS_P2;PMS_P1;PMS_P2;Temp;Humidity;BMP_temperature;BMP_pressure;BME280_temperature;BME280_humidity;BME280_pressure;Samples;Min_cycle;Max_cycle;Signal;HPM_P1;HPM_P2
2023/08/31 00:00:40;;;;;;;10.68;4.88;;;;;;;;;;6230375;28;20041;-76
2023/08/31 00:03:42;;;;;;;9.85;5.00;;;;;;;;;;6227049;28;20492;-78
2023/08/31 00:06:45;;;;;;;14.13;4.43;;;;;;;;;;6223087;28;20042;-77
2023/08/31 00:09:47;;;;;;;49.72;7.00;;;;;;;;;;6230190;28;20135;-77
2023/08/31 00:12:49;;;;;;;18.97;4.70;;;;;;;;;;6199210;28;20080;-78
2023/08/31 00:15:54;;;;;;;15.50;5.47;;;;;;;;;;6203363;28;20050;-79
2023/08/31 00:18:56;;;;;;;8.88;4.38;;;;;;;;;;6212282;28;20061;-78
2023/08/31 00:21:58;;;;;;;7.53;4.93;;;;;;;;;;6227442;28;20088;-76
2023/08/31 00:25:00;;;;;;;19.15;5.38;;;;;;;;;;6217024;28;20146;-78
2023/08/31 00:28:04;;;;;;;9.25;5.28;;;;;;;;;;6207389;28;20045;-78
2023/08/31 00:31:06;;;;;;;13.65;4.53;;;;;;;;;;6236459;28;20048;-76
2023/08/31 00:34:14;;;;;;;17.45;5.05;;;;;;;;;;6229664;28;20041;-78
2023/08/31 00:37:16;;;;;;;24.58;5.13;;;;;;;;;;6230761;28;20128;-78
2023/08/31 00:40:18;;;;;;;9.63;4.35;;;;;;;;;;6231628;28;20057;-78
2023/08/31 00:43:19;;;;;;;9.95;4.00;;;;;;;;;;6233224;28;20053;-77
2023/08/31 00:46:21;;;;;;;9.45;5.28;;;;;;;;;;6234376;28;20057;-78
2023/08/31 00:49:23;;;;;;;7.70;4.10;;;;;;;;;;6215756;28;20051;-79
2023/08/31 00:52:25;;;;;;;7.95;4.50;;;;;;;;;;6234045;28;20069;-78
2023/08/31 00:55:26;;;;;;;9.52;5.50;;;;;;;;;;6232341;28;20049;-78
2023/08/31 00:58:30;;;;;;;9.45;5.28;;;;;;;;;;6219791;28;20175;-77
2023/08/31 01:01:49;;;;;;;8.75;5.15;;;;;;;;;;6215754;28;20107;-79
2023/08/31 01:05:07;;;;;;;8.52;4.88;;;;;;;;;;6233273;28;20062;-75
2023/08/31 01:08:54;;;;;;;14.68;6.50;;;;;;;;;;6234312;28;20080;-78
2023/08/31 01:12:04;;;;;;;10.48;5.50;;;;;;;;;;6145302;28;20055;-77
2023/08/31 01:15:11;;;;;;;12.45;5.10;;;;;;;;;;6211523;28;20046;-78
2023/08/31 01:18:16;;;;;;;8.15;4.57;;;;;;;;;;6234838;28;20053;-76
2023/08/31 01:21:28;;;;;;;9.27;5.38;;;;;;;;;;6212763;28;20049;-78
2023/08/31 01:24:31;;;;;;;8.10;4.85;;;;;;;;;;6233053;28;20049;-77
2023/08/31 01:27:34;;;;;;;7.43;4.32;;;;;;;;;;6231587;28;20053;-76
2023/08/31 01:30:35;;;;;;;8.90;4.57;;;;;;;;;;6233522;28;20037;-76
2023/08/31 01:33:37;;;;;;;8.63;4.22;;;;;;;;;;6229674;28;20049;-76
2023/08/31 01:36:46;;;;;;;6.22;3.20;;;;;;;;;;6233391;28;20041;-75
2023/08/31 01:40:04;;;;;;;4.57;3.10;;;;;;;;;;6227674;28;20052;-77
2023/08/31 01:43:07;;;;;;;4.30;3.08;;;;;;;;;;6225361;28;20056;-77
2023/08/31 01:46:09;;;;;;;;;;;;;;;;;;6217814;28;20041;-78
2023/08/31 01:49:11;;;;;;;38.97;5.28;;;;;;;;;;6233636;28;19921;-78
2023/08/31 01:52:13;;;;;;;9.02;4.07;;;;;;;;;;6230125;28;20038;-76
2023/08/31 01:55:15;;;;;;;7.68;3.95;;;;;;;;;;6229303;28;20065;-78
2023/08/31 01:58:17;;;;;;;13.80;3.80;;;;;;;;;;6230076;28;20045;-76
2023/08/31 02:01:19;;;;;;;7.35;4.00;;;;;;;;;;6212609;28;20053;-76
2023/08/31 02:04:22;;;;;;;9.27;3.15;;;;;;;;;;6212108;28;20045;-77
2023/08/31 02:07:23;;;;;;;6.88;3.42;;;;;;;;;;6231124;28;20144;-77
2023/08/31 02:10:27;;;;;;;43.47;5.00;;;;;;;;;;6231207;28;20341;-77
2023/08/31 02:13:30;;;;;;;6.15;3.75;;;;;;;;;;6231469;28;20053;-77
2023/08/31 02:16:32;;;;;;;7.30;3.38;;;;;;;;;;6232152;28;20078;-76
2023/08/31 02:19:33;;;;;;;5.82;3.67;;;;;;;;;;6231121;28;20049;-75
2023/08/31 02:22:35;;;;;;;16.13;4.20;;;;;;;;;;6225960;28;20056;-77
2023/08/31 02:25:37;;;;;;;22.85;4.07;;;;;;;;;;6229855;28;20366;-76
2023/08/31 02:28:39;;;;;;;15.18;4.75;;;;;;;;;;6225269;28;20163;-77
2023/08/31 02:31:41;;;;;;;7.47;3.63;;;;;;;;;;6229271;28;20045;-77
2023/08/31 02:34:43;;;;;;;7.83;4.30;;;;;;;;;;6226221;28;20420;-77
2023/08/31 02:37:45;;;;;;;20.45;4.75;;;;;;;;;;6227500;28;20056;-77
2023/08/31 02:40:47;;;;;;;10.10;3.88;;;;;;;;;;6208777;28;20050;-77
2023/08/31 02:43:52;;;;;;;6.20;3.72;;;;;;;;;;6223644;28;20049;-77
2023/08/31 02:46:53;;;;;;;8.95;4.18;;;;;;;;;;6226533;28;20060;-77
2023/08/31 02:49:56;;;;;;;7.72;4.70;;;;;;;;;;6225097;28;20046;-75
2023/08/31 02:52:57;;;;;;;11.20;4.43;;;;;;;;;;6217762;28;20037;-75
2023/08/31 02:55:59;;;;;;;8.38;3.97;;;;;;;;;;6215249;28;20051;-74
2023/08/31 02:59:03;;;;;;;10.10;4.55;;;;;;;;;;6222981;28;20542;-74
2023/08/31 03:02:05;;;;;;;9.07;4.63;;;;;;;;;;6199298;28;20050;-77
2023/08/31 03:05:07;;;;;;;28.02;5.60;;;;;;;;;;6209983;28;20057;-74
2023/08/31 03:08:09;;;;;;;8.50;5.03;;;;;;;;;;6216810;28;20566;-77
2023/08/31 03:11:11;;;;;;;14.73;4.43;;;;;;;;;;6215423;28;20444;-79
2023/08/31 03:14:13;;;;;;;29.88;4.70;;;;;;;;;;6200891;28;20053;-78
2023/08/31 03:17:15;;;;;;;7.25;4.30;;;;;;;;;;6209438;28;20046;-77
2023/08/31 03:20:17;;;;;;;13.65;5.18;;;;;;;;;;6192341;28;20542;-77
2023/08/31 03:23:19;;;;;;;7.43;4.40;;;;;;;;;;6228116;28;20065;-78
2023/08/31 03:26:20;;;;;;;6.72;4.22;;;;;;;;;;6223578;28;20042;-75
2023/08/31 03:29:22;;;;;;;6.55;4.20;;;;;;;;;;6221578;28;20052;-75
2023/08/31 03:32:25;;;;;;;6.40;4.10;;;;;;;;;;6212812;28;20409;-76
2023/08/31 03:35:28;;;;;;;7.05;4.18;;;;;;;;;;6228313;28;20057;-75
2023/08/31 03:38:37;;;;;;;5.60;3.72;;;;;;;;;;6201878;28;20125;-76
2023/08/31 03:41:39;;;;;;;6.47;4.25;;;;;;;;;;6220862;28;20045;-77
2023/08/31 03:44:42;;;;;;;6.28;4.28;;;;;;;;;;6222071;28;20047;-76
2023/08/31 03:47:44;;;;;;;5.90;3.97;;;;;;;;;;6194991;28;20053;-77
2023/08/31 03:50:49;;;;;;;6.22;4.15;;;;;;;;;;6221510;28;20419;-76
2023/08/31 03:53:51;;;;;;;6.18;4.22;;;;;;;;;;6226076;28;20037;-77
2023/08/31 03:56:52;;;;;;;5.78;4.07;;;;;;;;;;6229208;28;20073;-77
2023/08/31 03:59:54;;;;;;;6.90;4.30;;;;;;;;;;6196990;28;20098;-77
2023/08/31 04:02:56;;;;;;;7.28;3.78;;;;;;;;;;6223930;28;20531;-77
2023/08/31 04:06:02;;;;;;;7.10;4.20;;;;;;;;;;6215716;28;20053;-76
2023/08/31 04:09:04;;;;;;;7.95;4.45;;;;;;;;;;6230778;28;20770;-76
2023/08/31 04:12:07;;;;;;;7.68;4.50;;;;;;;;;;6225427;28;20049;-76
2023/08/31 04:15:09;;;;;;;6.72;4.32;;;;;;;;;;6230742;28;20045;-77
2023/08/31 04:18:11;;;;;;;7.30;4.88;;;;;;;;;;6213703;28;20057;-77
2023/08/31 04:21:13;;;;;;;9.43;5.05;;;;;;;;;;6227666;28;20463;-75
2023/08/31 04:24:15;;;;;;;12.80;4.80;;;;;;;;;;6227634;28;20045;-76
2023/08/31 04:27:16;;;;;;;8.80;4.70;;;;;;;;;;6231621;28;20046;-77
2023/08/31 04:30:18;;;;;;;10.95;5.35;;;;;;;;;;6214027;28;20052;-77
2023/08/31 04:33:20;;;;;;;8.95;5.15;;;;;;;;;;6228105;28;20053;-77
2023/08/31 04:36:21;;;;;;;10.88;5.38;;;;;;;;;;6233582;28;20045;-77
2023/08/31 04:39:23;;;;;;;12.38;6.10;;;;;;;;;;6229587;28;20041;-76
2023/08/31 04:42:25;;;;;;;10.88;5.85;;;;;;;;;;6231461;28;20499;-77
2023/08/31 04:45:26;;;;;;;9.52;5.07;;;;;;;;;;6227310;28;20415;-77
2023/08/31 04:48:28;;;;;;;11.02;5.15;;;;;;;;;;6233687;28;20064;-76
2023/08/31 04:51:35;;;;;;;7.85;4.65;;;;;;;;;;6230546;28;20041;-76
2023/08/31 04:54:36;;;;;;;10.35;5.00;;;;;;;;;;6226626;28;20041;-77
2023/08/31 04:57:39;;;;;;;8.55;5.32;;;;;;;;;;6232527;28;20038;-75
2023/08/31 05:00:40;;;;;;;11.00;5.60;;;;;;;;;;6231209;28;20052;-76
2023/08/31 05:03:42;;;;;;;10.40;5.00;;;;;;;;;;6224188;28;20044;-76
2023/08/31 05:06:44;;;;;;;8.32;4.93;;;;;;;;;;6223680;28;20175;-75
2023/08/31 05:09:46;;;;;;;11.70;5.43;;;;;;;;;;6230974;28;20045;-77
2023/08/31 05:12:48;;;;;;;11.55;5.78;;;;;;;;;;6228352;28;20045;-76
2023/08/31 05:15:49;;;;;;;10.85;6.15;;;;;;;;;;6230364;28;20128;-76
2023/08/31 05:18:51;;;;;;;9.05;5.35;;;;;;;;;;6229607;28;20102;-77
2023/08/31 05:21:53;;;;;;;9.55;5.63;;;;;;;;;;6229499;28;20146;-76
2023/08/31 05:24:55;;;;;;;10.07;5.70;;;;;;;;;;6230067;28;20084;-75
2023/08/31 05:27:57;;;;;;;12.30;6.55;;;;;;;;;;6228238;28;20041;-75
2023/08/31 05:31:01;;;;;;;10.93;6.13;;;;;;;;;;6222614;28;20056;-77
2023/08/31 05:34:03;;;;;;;10.35;5.93;;;;;;;;;;6225695;28;20040;-76
2023/08/31 05:37:05;;;;;;;11.15;5.95;;;;;;;;;;6228143;28;20042;-75
2023/08/31 05:40:10;;;;;;;10.47;5.90;;;;;;;;;;6227588;28;20042;-77
2023/08/31 05:43:13;;;;;;;10.70;5.57;;;;;;;;;;6231132;28;20079;-76
2023/08/31 05:46:15;;;;;;;10.35;5.60;;;;;;;;;;6233560;28;20045;-77
2023/08/31 05:49:17;;;;;;;8.30;5.10;;;;;;;;;;6216092;28;20416;-77
2023/08/31 05:52:19;;;;;;;10.55;5.38;;;;;;;;;;6231549;28;20045;-77
2023/08/31 05:55:20;;;;;;;10.93;5.70;;;;;;;;;;6230474;28;20408;-75
2023/08/31 05:58:23;;;;;;;10.77;5.88;;;;;;;;;;6234869;28;20452;-75
2023/08/31 06:01:25;;;;;;;10.07;5.55;;;;;;;;;;6228802;28;20041;-77
2023/08/31 06:04:26;;;;;;;10.10;5.75;;;;;;;;;;6226139;28;20041;-77
2023/08/31 06:07:29;;;;;;;8.55;5.28;;;;;;;;;;6226430;28;20038;-77
2023/08/31 06:10:30;;;;;;;9.15;5.45;;;;;;;;;;6232154;28;20495;-77
2023/08/31 06:13:32;;;;;;;8.98;5.25;;;;;;;;;;6223689;28;20037;-74
2023/08/31 06:16:34;;;;;;;6.97;4.88;;;;;;;;;;6222632;28;20457;-76
2023/08/31 06:19:38;;;;;;;10.43;5.40;;;;;;;;;;6229881;28;20427;-74
2023/08/31 06:22:39;;;;;;;8.70;5.22;;;;;;;;;;6224589;28;20053;-76
2023/08/31 06:25:41;;;;;;;11.45;7.00;;;;;;;;;;6204822;28;20042;-77
2023/08/31 06:28:43;;;;;;;13.05;8.10;;;;;;;;;;6216479;28;20041;-74
2023/08/31 06:31:44;;;;;;;13.15;8.50;;;;;;;;;;6233594;28;20423;-76
2023/08/31 06:34:46;;;;;;;11.90;7.65;;;;;;;;;;6228065;28;20049;-76
2023/08/31 06:37:50;;;;;;;13.85;7.85;;;;;;;;;;6223941;28;20061;-76
2023/08/31 06:40:58;;;;;;;9.32;7.40;;;;;;;;;;6225312;28;20049;-77
2023/08/31 06:44:00;;;;;;;10.05;7.45;;;;;;;;;;6227951;28;20045;-75
2023/08/31 06:47:03;;;;;;;12.95;7.28;;;;;;;;;;6228970;28;20076;-76
2023/08/31 06:50:05;;;;;;;10.55;6.78;;;;;;;;;;6224589;28;20527;-78
2023/08/31 06:53:06;;;;;;;12.07;7.22;;;;;;;;;;6230274;28;20176;-78
2023/08/31 06:56:08;;;;;;;10.82;6.57;;;;;;;;;;6232574;28;20564;-78
2023/08/31 06:59:10;;;;;;;8.63;6.15;;;;;;;;;;6227173;28;20487;-78
2023/08/31 07:02:12;;;;;;;10.23;6.55;;;;;;;;;;6226277;28;20050;-78
2023/08/31 07:05:14;;;;;;;9.23;5.72;;;;;;;;;;6234471;28;20601;-76
2023/08/31 07:08:15;;;;;;;9.13;6.05;;;;;;;;;;6210317;28;20049;-78
2023/08/31 07:11:17;;;;;;;8.60;5.88;;;;;;;;;;6226290;28;20061;-77
2023/08/31 07:14:19;;;;;;;7.83;4.97;;;;;;;;;;6229120;28;20571;-77
2023/08/31 07:17:21;;;;;;;7.85;5.45;;;;;;;;;;6231672;28;20052;-78
2023/08/31 07:20:23;;;;;;;7.78;5.10;;;;;;;;;;6227963;28;20037;-77
2023/08/31 07:23:24;;;;;;;7.30;4.28;;;;;;;;;;6226902;28;20199;-77
2023/08/31 07:26:26;;;;;;;4.85;3.53;;;;;;;;;;6232984;28;20042;-77
2023/08/31 07:29:28;;;;;;;5.55;3.47;;;;;;;;;;6225361;28;20049;-78
2023/08/31 07:32:30;;;;;;;4.88;3.67;;;;;;;;;;6229341;28;20056;-77
2023/08/31 07:35:31;;;;;;;9.98;3.10;;;;;;;;;;6222858;28;20519;-75
2023/08/31 07:38:33;;;;;;;5.57;2.90;;;;;;;;;;6232140;28;20454;-76
2023/08/31 07:41:35;;;;;;;6.28;2.88;;;;;;;;;;6228855;28;20042;-75
2023/08/31 07:44:37;;;;;;;2.85;2.00;;;;;;;;;;6229288;28;20041;-77
2023/08/31 07:47:39;;;;;;;4.22;2.50;;;;;;;;;;6231488;28;20090;-77
2023/08/31 07:50:41;;;;;;;3.40;2.20;;;;;;;;;;6234173;28;20041;-78
2023/08/31 07:53:43;;;;;;;3.08;2.10;;;;;;;;;;6231314;28;20050;-77
2023/08/31 07:56:45;;;;;;;2.67;2.00;;;;;;;;;;6234094;28;20056;-77
2023/08/31 07:59:47;;;;;;;4.18;2.40;;;;;;;;;;6230411;28;20038;-77
2023/08/31 08:02:48;;;;;;;6.22;2.10;;;;;;;;;;6231370;28;20061;-77
2023/08/31 08:05:50;;;;;;;3.80;1.80;;;;;;;;;;6230924;28;20049;-75
2023/08/31 08:08:52;;;;;;;5.60;1.83;;;;;;;;;;6230207;28;20050;-79
2023/08/31 08:11:53;;;;;;;2.03;1.80;;;;;;;;;;6231398;28;20054;-76
2023/08/31 08:14:55;;;;;;;3.38;1.77;;;;;;;;;;6228941;28;20049;-76
2023/08/31 08:17:57;;;;;;;3.10;1.77;;;;;;;;;;6230603;28;20049;-76
2023/08/31 08:20:59;;;;;;;4.63;2.08;;;;;;;;;;6229393;28;20053;-74
2023/08/31 08:24:01;;;;;;;2.97;2.00;;;;;;;;;;6230577;28;20045;-77
2023/08/31 08:27:02;;;;;;;4.40;1.73;;;;;;;;;;6231663;28;20049;-76
2023/08/31 08:30:05;;;;;;;3.22;1.80;;;;;;;;;;6229200;28;20046;-76
2023/08/31 08:33:08;;;;;;;3.88;2.00;;;;;;;;;;6230675;28;20041;-77
2023/08/31 08:36:10;;;;;;;2.85;1.88;;;;;;;;;;6227471;28;20049;-76
2023/08/31 08:39:12;;;;;;;3.72;1.85;;;;;;;;;;6225960;28;20069;-76
2023/08/31 08:42:15;;;;;;;4.32;1.83;;;;;;;;;;6225726;28;20049;-78
2023/08/31 08:45:16;;;;;;;4.65;1.73;;;;;;;;;;6227617;28;20530;-78
2023/08/31 08:48:20;;;;;;;4.22;2.38;;;;;;;;;;6228024;28;20057;-78
2023/08/31 08:51:22;;;;;;;1.70;1.60;;;;;;;;;;6230018;28;20045;-77
2023/08/31 08:54:24;;;;;;;2.78;1.95;;;;;;;;;;6225715;28;20046;-76
2023/08/31 08:57:26;;;;;;;3.20;1.77;;;;;;;;;;6228016;28;20046;-78
2023/08/31 09:00:28;;;;;;;3.47;1.55;;;;;;;;;;6231902;28;20455;-79
2023/08/31 09:03:31;;;;;;;3.78;1.60;;;;;;;;;;6230007;28;20107;-79
2023/08/31 09:06:33;;;;;;;1.75;1.60;;;;;;;;;;6226572;28;20415;-77
2023/08/31 09:09:55;;;;;;;2.03;1.50;;;;;;;;;;6227301;28;20038;-78
2023/08/31 09:12:56;;;;;;;2.47;1.58;;;;;;;;;;6206562;28;20050;-77
2023/08/31 09:15:58;;;;;;;3.67;1.77;;;;;;;;;;6205983;28;20053;-78
2023/08/31 09:19:16;;;;;;;4.28;1.55;;;;;;;;;;6205813;28;20053;-80
2023/08/31 09:22:22;;;;;;;2.90;1.83;;;;;;;;;;6208398;28;20060;-77
2023/08/31 09:25:25;;;;;;;2.80;1.60;;;;;;;;;;6207870;28;20581;-78
2023/08/31 09:28:28;;;;;;;5.97;1.77;;;;;;;;;;6216716;28;20042;-78
2023/08/31 09:31:30;;;;;;;1.95;1.67;;;;;;;;;;6206334;28;20042;-78
2023/08/31 09:34:34;;;;;;;4.57;2.45;;;;;;;;;;6222404;28;20049;-79
2023/08/31 09:37:36;;;;;;;;;;;;;;;;;;6182378;28;20064;-78
2023/08/31 09:40:38;;;;;;;2.97;1.40;;;;;;;;;;6182743;28;20273;-78
2023/08/31 09:43:40;;;;;;;3.10;1.42;;;;;;;;;;6215372;28;20046;-78
2023/08/31 09:46:43;;;;;;;2.05;1.80;;;;;;;;;;6226072;28;20045;-78
2023/08/31 09:49:46;;;;;;;3.15;1.60;;;;;;;;;;6236287;28;20033;-78
2023/08/31 09:52:52;;;;;;;1.92;1.42;;;;;;;;;;6224390;28;20092;-77
2023/08/31 09:55:56;;;;;;;3.70;1.60;;;;;;;;;;6205322;28;20046;-77
2023/08/31 09:58:59;;;;;;;3.75;1.52;;;;;;;;;;6206016;28;20049;-75
2023/08/31 10:02:01;;;;;;;2.20;1.48;;;;;;;;;;6223231;28;20392;-76
2023/08/31 10:05:05;;;;;;;2.17;1.27;;;;;;;;;;6206452;28;20196;-76
2023/08/31 10:08:07;;;;;;;1.50;1.35;;;;;;;;;;6224065;28;20057;-76
2023/08/31 10:11:12;;;;;;;1.85;1.25;;;;;;;;;;6223834;28;20056;-77
2023/08/31 10:14:16;;;;;;;2.15;1.27;;;;;;;;;;6213501;28;20041;-76
2023/08/31 10:17:19;;;;;;;2.13;1.17;;;;;;;;;;6202916;28;20034;-76
2023/08/31 10:20:21;;;;;;;2.33;1.23;;;;;;;;;;6208094;28;20136;-76
2023/08/31 10:23:24;;;;;;;2.97;1.20;;;;;;;;;;6194129;28;20427;-76
2023/08/31 10:26:31;;;;;;;2.17;1.02;;;;;;;;;;6219313;28;20041;-76
2023/08/31 10:29:33;;;;;;;2.25;1.02;;;;;;;;;;6221814;28;20068;-76
2023/08/31 10:32:35;;;;;;;2.57;1.30;;;;;;;;;;6187311;28;20044;-76
2023/08/31 10:35:51;;;;;;;2.90;1.17;;;;;;;;;;6207664;28;20049;-74
2023/08/31 10:38:55;;;;;;;3.75;1.15;;;;;;;;;;6224228;28;20072;-75
2023/08/31 10:42:00;;;;;;;1.92;1.13;;;;;;;;;;6224682;28;20451;-76
2023/08/31 10:45:06;;;;;;;2.65;1.08;;;;;;;;;;6227624;28;20049;-76
2023/08/31 10:48:08;;;;;;;1.83;1.10;;;;;;;;;;6232500;28;20046;-77
2023/08/31 10:51:16;;;;;;;2.50;1.10;;;;;;;;;;6225725;28;20072;-77
2023/08/31 10:54:20;;;;;;;2.72;1.17;;;;;;;;;;6227298;28;20045;-77
2023/08/31 10:57:31;;;;;;;2.90;1.33;;;;;;;;;;6225502;28;20419;-76
2023/08/31 11:00:47;;;;;;;2.63;1.25;;;;;;;;;;6223537;28;20492;-75
2023/08/31 11:03:59;;;;;;;2.78;1.35;;;;;;;;;;6225225;28;20049;-76
2023/08/31 11:07:17;;;;;;;3.67;1.35;;;;;;;;;;6206451;28;20049;-76
2023/08/31 11:10:22;;;;;;;4.32;1.30;;;;;;;;;;6223952;28;20048;-76
2023/08/31 11:13:24;;;;;;;3.47;1.40;;;;;;;;;;6224706;28;20125;-76
2023/08/31 11:16:26;;;;;;;3.25;1.40;;;;;;;;;;6227662;28;20116;-77
2023/08/31 11:19:28;;;;;;;4.13;1.35;;;;;;;;;;6229945;28;20073;-77
2023/08/31 11:22:30;;;;;;;4.05;1.20;;;;;;;;;;6229232;28;20052;-77
2023/08/31 11:25:32;;;;;;;2.22;1.20;;;;;;;;;;6225204;28;20124;-78
2023/08/31 11:28:34;;;;;;;2.53;1.20;;;;;;;;;;6225937;28;20037;-77
2023/08/31 11:31:39;;;;;;;2.67;1.20;;;;;;;;;;6228089;28;20076;-77
2023/08/31 11:34:43;;;;;;;2.67;1.25;;;;;;;;;;6223829;28;20073;-77
2023/08/31 11:37:49;;;;;;;2.75;1.10;;;;;;;;;;6226884;28;20052;-77
2023/08/31 11:40:56;;;;;;;3.33;1.00;;;;;;;;;;6223871;28;20145;-78
2023/08/31 11:43:58;;;;;;;3.33;1.20;;;;;;;;;;6226444;28;20042;-76
2023/08/31 11:47:00;;;;;;;3.43;1.23;;;;;;;;;;6226816;28;20042;-77
2023/08/31 11:50:04;;;;;;;2.05;1.20;;;;;;;;;;6224385;28;20807;-78
2023/08/31 11:53:05;;;;;;;3.10;1.40;;;;;;;;;;6210654;28;20133;-78
2023/08/31 11:56:07;;;;;;;3.38;1.42;;;;;;;;;;6226659;28;20042;-77
2023/08/31 11:59:11;;;;;;;2.97;1.05;;;;;;;;;;6220779;28;20037;-77
2023/08/31 12:02:13;;;;;;;1.35;1.10;;;;;;;;;;6222765;28;20499;-78
2023/08/31 12:05:15;;;;;;;5.47;1.70;;;;;;;;;;6222823;28;20424;-77
2023/08/31 12:08:24;;;;;;;3.13;1.40;;;;;;;;;;6226782;28;20073;-78
2023/08/31 12:11:25;;;;;;;2.20;1.27;;;;;;;;;;6222488;28;20037;-78
2023/08/31 12:14:28;;;;;;;2.67;1.33;;;;;;;;;;6228093;28;20060;-77
2023/08/31 12:17:32;;;;;;;2.95;1.45;;;;;;;;;;6234943;28;20052;-77
2023/08/31 12:20:40;;;;;;;3.33;1.60;;;;;;;;;;6233004;28;20037;-77
2023/08/31 12:23:42;;;;;;;2.85;1.27;;;;;;;;;;6234990;28;20053;-76
2023/08/31 12:26:44;;;;;;;2.47;1.38;;;;;;;;;;6230501;28;20459;-77
2023/08/31 12:29:46;;;;;;;2.53;1.08;;;;;;;;;;6223393;28;20098;-78
2023/08/31 12:32:48;;;;;;;3.50;1.25;;;;;;;;;;6230326;28;20038;-77
2023/08/31 12:35:50;;;;;;;2.90;1.30;;;;;;;;;;6223861;28;20057;-77
2023/08/31 12:38:52;;;;;;;4.00;1.52;;;;;;;;;;6226176;28;20049;-76
2023/08/31 12:41:54;;;;;;;5.03;1.70;;;;;;;;;;6233842;28;20045;-77
2023/08/31 12:45:07;;;;;;;2.53;1.30;;;;;;;;;;6225622;28;20049;-78
2023/08/31 12:48:08;;;;;;;2.22;1.30;;;;;;;;;;6226978;28;20050;-78
2023/08/31 12:51:10;;;;;;;5.00;1.20;;;;;;;;;;6226376;28;20076;-77
2023/08/31 12:54:12;;;;;;;2.67;1.50;;;;;;;;;;6227409;28;20653;-78
2023/08/31 12:57:14;;;;;;;1.45;0.90;;;;;;;;;;6224779;28;20045;-77
2023/08/31 13:00:17;;;;;;;2.15;0.93;;;;;;;;;;6226586;28;20079;-78
2023/08/31 13:03:19;;;;;;;3.05;1.40;;;;;;;;;;6230676;28;20041;-78
2023/08/31 13:06:21;;;;;;;2.35;1.35;;;;;;;;;;6195381;28;20049;-79
2023/08/31 13:09:23;;;;;;;2.45;1.10;;;;;;;;;;6222003;28;20045;-77
2023/08/31 13:12:25;;;;;;;1.98;1.25;;;;;;;;;;6216207;28;20041;-77
2023/08/31 13:15:26;;;;;;;1.90;1.05;;;;;;;;;;6211099;28;20054;-76
2023/08/31 13:18:29;;;;;;;2.65;1.30;;;;;;;;;;6227786;28;20455;-78
2023/08/31 13:21:30;;;;;;;2.58;1.10;;;;;;;;;;6225283;28;20080;-77
2023/08/31 13:24:32;;;;;;;4.05;1.30;;;;;;;;;;6234501;28;20254;-79
2023/08/31 13:27:34;;;;;;;5.93;1.50;;;;;;;;;;6231771;28;20048;-78
2023/08/31 13:30:35;;;;;;;1.77;1.08;;;;;;;;;;6228279;28;20052;-77
2023/08/31 13:33:37;;;;;;;3.53;1.45;;;;;;;;;;6231425;28;20124;-78
2023/08/31 13:36:39;;;;;;;3.05;1.63;;;;;;;;;;6234401;28;20758;-79
2023/08/31 13:39:40;;;;;;;3.67;1.50;;;;;;;;;;6229936;28;20068;-76
2023/08/31 13:43:02;;;;;;;2.85;1.63;;;;;;;;;;6221786;28;20515;-78
2023/08/31 13:46:04;;;;;;;3.55;1.40;;;;;;;;;;6229641;28;20131;-76
2023/08/31 13:49:06;;;;;;;5.93;1.67;;;;;;;;;;6232909;28;20041;-76
2023/08/31 13:52:10;;;;;;;2.35;1.40;;;;;;;;;;6226484;28;20429;-79
2023/08/31 13:55:12;;;;;;;3.25;1.40;;;;;;;;;;6232499;28;20064;-76
2023/08/31 13:58:14;;;;;;;3.83;1.73;;;;;;;;;;6213805;28;20057;-77
2023/08/31 14:01:16;;;;;;;1.98;1.50;;;;;;;;;;6231624;28;20056;-78
2023/08/31 14:04:17;;;;;;;3.30;1.67;;;;;;;;;;6232179;28;20415;-78
2023/08/31 14:07:19;;;;;;;2.95;1.60;;;;;;;;;;6211151;28;20107;-78
2023/08/31 14:10:21;;;;;;;6.85;2.03;;;;;;;;;;6233257;28;20399;-78
2023/08/31 14:13:23;;;;;;;6.82;2.20;;;;;;;;;;6228302;28;20042;-78
2023/08/31 14:16:24;;;;;;;13.00;9.27;;;;;;;;;;6229243;28;20041;-75
2023/08/31 14:19:26;;;;;;;3.05;1.95;;;;;;;;;;6232600;28;20068;-78
2023/08/31 14:22:28;;;;;;;5.57;1.67;;;;;;;;;;6228593;28;20106;-76
2023/08/31 14:25:38;;;;;;;3.70;2.00;;;;;;;;;;6230803;28;20431;-77
2023/08/31 14:28:40;;;;;;;2.75;1.92;;;;;;;;;;6210617;28;20088;-77
2023/08/31 14:31:41;;;;;;;7.28;3.63;;;;;;;;;;6232026;28;20045;-77
2023/08/31 14:34:46;;;;;;;6.88;4.93;;;;;;;;;;6231070;28;20045;-76
2023/08/31 14:37:48;;;;;;;6.70;4.37;;;;;;;;;;6211872;28;20056;-77
2023/08/31 14:40:51;;;;;;;4.03;2.25;;;;;;;;;;6224090;28;20123;-76
2023/08/31 14:43:53;;;;;;;3.53;1.95;;;;;;;;;;6225422;28;20049;-77
2023/08/31 14:46:54;;;;;;;3.05;2.00;;;;;;;;;;6225608;28;20504;-77
2023/08/31 14:49:56;;;;;;;4.68;2.30;;;;;;;;;;6227287;28;20058;-76
2023/08/31 14:52:57;;;;;;;4.18;3.00;;;;;;;;;;6224036;28;20052;-77
2023/08/31 14:55:59;;;;;;;5.57;3.03;;;;;;;;;;6228078;28;20629;-77
2023/08/31 14:59:01;;;;;;;4.25;1.95;;;;;;;;;;6223735;28;20042;-77
2023/08/31 15:02:04;;;;;;;4.13;1.70;;;;;;;;;;6226113;28;20057;-78
2023/08/31 15:05:07;;;;;;;3.78;2.25;;;;;;;;;;6208313;28;20464;-76
2023/08/31 15:08:10;;;;;;;3.60;2.00;;;;;;;;;;6224371;28;20431;-77
2023/08/31 15:11:13;;;;;;;4.40;2.50;;;;;;;;;;6224348;28;20068;-77
2023/08/31 15:14:17;;;;;;;5.00;3.08;;;;;;;;;;6234459;28;20077;-76
2023/08/31 15:17:19;;;;;;;;;;;;;;;;;;6236239;28;20037;-77
2023/08/31 15:20:21;;;;;;;5.18;2.30;;;;;;;;;;6222995;28;19961;-75
2023/08/31 15:23:23;;;;;;;6.20;1.57;;;;;;;;;;6224438;28;20662;-77
2023/08/31 15:26:25;;;;;;;3.88;1.50;;;;;;;;;;6223379;28;20052;-77
2023/08/31 15:29:27;;;;;;;3.38;1.90;;;;;;;;;;6201211;28;20160;-77
2023/08/31 15:32:29;;;;;;;2.78;1.70;;;;;;;;;;6201106;28;20069;-77
2023/08/31 15:35:32;;;;;;;2.63;2.10;;;;;;;;;;6222287;28;20046;-78
2023/08/31 15:38:34;;;;;;;;;;;;;;;;;;6220683;28;20045;-76
2023/08/31 15:41:36;;;;;;;3.38;2.75;;;;;;;;;;6202543;28;19925;-77
2023/08/31 15:44:41;;;;;;;2.95;2.17;;;;;;;;;;6216994;28;20045;-76
2023/08/31 15:47:42;;;;;;;4.90;3.70;;;;;;;;;;6221124;28;20423;-77
2023/08/31 15:50:44;;;;;;;2.67;2.00;;;;;;;;;;6210804;28;20050;-77
2023/08/31 15:53:46;;;;;;;3.42;2.35;;;;;;;;;;6220854;28;20072;-77
2023/08/31 15:56:47;;;;;;;3.30;1.77;;;;;;;;;;6221787;28;20045;-77
2023/08/31 15:59:49;;;;;;;1.98;1.45;;;;;;;;;;6185113;28;20058;-76
2023/08/31 16:02:51;;;;;;;2.92;1.63;;;;;;;;;;6206145;28;20053;-76
2023/08/31 16:05:53;;;;;;;3.33;1.80;;;;;;;;;;6199759;28;20049;-77
2023/08/31 16:08:54;;;;;;;3.50;1.90;;;;;;;;;;6217848;28;20127;-75
2023/08/31 16:11:56;;;;;;;4.47;1.65;;;;;;;;;;6207212;28;20056;-77
2023/08/31 16:14:58;;;;;;;3.22;1.90;;;;;;;;;;6207806;28;20128;-77
2023/08/31 16:18:00;;;;;;;3.90;1.80;;;;;;;;;;6218608;28;20061;-76
2023/08/31 16:21:04;;;;;;;3.13;2.00;;;;;;;;;;6228943;28;20045;-77
2023/08/31 16:24:06;;;;;;;3.28;1.80;;;;;;;;;;6228807;28;20045;-78
2023/08/31 16:27:08;;;;;;;3.28;1.75;;;;;;;;;;6207881;28;20540;-76
2023/08/31 16:30:11;;;;;;;3.20;1.77;;;;;;;;;;6214018;28;20045;-77
2023/08/31 16:33:13;;;;;;;2.95;2.10;;;;;;;;;;6238515;28;20046;-75
2023/08/31 16:36:14;;;;;;;3.03;1.73;;;;;;;;;;6230615;28;20061;-77
2023/08/31 16:39:17;;;;;;;3.92;2.13;;;;;;;;;;6230805;28;20049;-77
2023/08/31 16:42:19;;;;;;;2.90;2.20;;;;;;;;;;6228507;28;20054;-77
2023/08/31 16:45:21;;;;;;;3.10;2.20;;;;;;;;;;6235758;28;20053;-77
2023/08/31 16:48:23;;;;;;;3.00;2.08;;;;;;;;;;6234227;28;20559;-77
2023/08/31 16:51:25;;;;;;;3.97;2.30;;;;;;;;;;6232797;28;20052;-79
2023/08/31 16:54:27;;;;;;;5.75;3.10;;;;;;;;;;6237570;28;20049;-78
2023/08/31 16:57:29;;;;;;;3.53;2.30;;;;;;;;;;6234929;28;20085;-77
2023/08/31 17:00:30;;;;;;;5.97;2.58;;;;;;;;;;6231470;28;20041;-78
2023/08/31 17:03:32;;;;;;;3.47;2.35;;;;;;;;;;6224600;28;20073;-75
2023/08/31 17:06:34;;;;;;;4.78;2.15;;;;;;;;;;6228857;28;20045;-78
2023/08/31 17:09:36;;;;;;;4.10;2.08;;;;;;;;;;6232780;28;20499;-78
2023/08/31 17:12:38;;;;;;;3.00;2.17;;;;;;;;;;6212428;28;20172;-78
2023/08/31 17:15:40;;;;;;;3.50;2.30;;;;;;;;;;6232720;28;20037;-78
2023/08/31 17:18:42;;;;;;;3.83;2.60;;;;;;;;;;6218498;28;20040;-78
2023/08/31 17:21:46;;;;;;;3.10;2.45;;;;;;;;;;6232697;28;20049;-80
2023/08/31 17:24:47;;;;;;;4.03;2.25;;;;;;;;;;6232506;28;20515;-78
2023/08/31 17:27:49;;;;;;;5.28;2.20;;;;;;;;;;6233465;28;20520;-80
2023/08/31 17:30:51;;;;;;;3.85;2.30;;;;;;;;;;6230091;28;20050;-79
2023/08/31 17:33:53;;;;;;;5.68;3.60;;;;;;;;;;6231459;28;20053;-79
2023/08/31 17:36:55;;;;;;;3.63;3.33;;;;;;;;;;6234834;28;20056;-79
2023/08/31 17:39:57;;;;;;;4.67;2.27;;;;;;;;;;6225717;28;20060;-78
2023/08/31 17:42:59;;;;;;;4.15;2.22;;;;;;;;;;6223344;28;20142;-78
2023/08/31 17:46:01;;;;;;;5.57;2.35;;;;;;;;;;6225615;28;20045;-79
2023/08/31 17:49:03;;;;;;;2.58;2.20;;;;;;;;;;6223665;28;20384;-77
2023/08/31 17:52:05;;;;;;;3.97;2.10;;;;;;;;;;6220420;28;20049;-78
2023/08/31 17:55:07;;;;;;;4.57;2.50;;;;;;;;;;6222270;28;20056;-77
2023/08/31 17:58:09;;;;;;;8.18;2.13;;;;;;;;;;6224313;28;20045;-77
2023/08/31 18:01:10;;;;;;;4.10;3.00;;;;;;;;;;6221628;28;20045;-77
2023/08/31 18:04:12;;;;;;;4.03;2.45;;;;;;;;;;6226320;28;20133;-78
2023/08/31 18:07:14;;;;;;;6.28;2.97;;;;;;;;;;6226697;28;20057;-77
2023/08/31 18:10:16;;;;;;;11.73;9.10;;;;;;;;;;6227810;28;21049;-79
2023/08/31 18:13:18;;;;;;;6.15;4.10;;;;;;;;;;6222617;28;20073;-77